Time;durP1;ratioP1;P1;durP2;ratioP2;P2;SDS_P1;SDS_P2;PMS_P1;PMS_P2;Temp;Humidity;BMP_temperature;BMP_pressure;BME280_temperature;BME280_humidity;BME280_pressure;Samples;Min_cycle;Max_cycle;Signal;HPM_P1;HPM_P2
2022/08/20 00:00:33;;;;;;;31.35;28.15;;;17.50;99.90;;;18.22;100.00;97807.69;5184552;28;20207;-75
2022/08/20 00:03:10;;;;;;;31.08;27.85;;;17.50;99.90;;;18.21;100.00;97805.97;5187812;28;20229;-74
2022/08/20 00:05:50;;;;;;;32.13;28.83;;;17.50;99.90;;;18.18;100.00;97817.09;5180037;28;20693;-76
2022/08/20 00:08:29;;;;;;;29.95;25.50;;;17.50;99.90;;;18.19;100.00;97823.16;5188400;28;20204;-75
2022/08/20 00:11:04;;;;;;;32.53;29.05;;;17.50;99.90;;;18.17;100.00;97819.63;5181836;28;20352;-75
2022/08/20 00:13:42;;;;;;;31.88;28.30;;;17.50;99.90;;;18.15;100.00;97805.81;5181498;28;20209;-75
2022/08/20 00:16:17;;;;;;;35.47;30.42;;;17.50;99.90;;;18.18;100.00;97816.22;5179667;28;20584;-75
2022/08/20 00:18:50;;;;;;;30.10;26.95;;;17.50;99.90;;;18.17;100.00;97819.63;5182373;28;20241;-75
2022/08/20 00:21:25;;;;;;;35.65;31.02;;;17.50;99.90;;;18.16;100.00;97817.91;5178717;28;20230;-77
2022/08/20 00:24:00;;;;;;;35.40;29.45;;;17.50;99.90;;;18.18;100.00;97818.81;5186587;28;20877;-75
2022/08/20 00:26:33;;;;;;;33.95;30.05;;;17.50;99.90;;;18.17;100.00;97819.63;5179314;28;20234;-76
2022/08/20 00:29:08;;;;;;;32.88;29.27;;;17.50;99.90;;;18.14;100.00;97823.03;5185416;28;20198;-77
2022/08/20 00:31:41;;;;;;;32.88;29.48;;;17.40;99.90;;;18.15;100.00;97823.91;5182824;28;20653;-76
2022/08/20 00:34:15;;;;;;;34.38;29.27;;;17.40;99.90;;;18.12;100.00;97829.88;5181141;28;20250;-75
2022/08/20 00:36:49;;;;;;;32.42;27.77;;;17.40;99.90;;;18.11;100.00;97830.69;5179840;28;20210;-75
2022/08/20 00:39:22;;;;;;;29.50;26.40;;;17.40;99.90;;;18.10;100.00;97835.84;5182324;28;20593;-75
2022/08/20 00:41:55;;;;;;;32.72;29.33;;;17.40;99.90;;;18.10;100.00;97835.84;5183513;28;20209;-75
2022/08/20 00:44:29;;;;;;;33.67;30.25;;;17.40;99.90;;;18.10;100.00;97839.31;5182017;28;20742;-75
2022/08/20 00:47:03;;;;;;;31.92;28.63;;;17.40;99.90;;;18.11;100.00;97835.88;5183178;28;20293;-76
2022/08/20 00:49:37;;;;;;;32.55;29.27;;;17.40;99.90;;;18.08;100.00;97842.69;5185692;28;20245;-75
2022/08/20 00:52:16;;;;;;;31.83;28.52;;;17.30;99.90;;;18.09;100.00;97839.28;5180731;28;20218;-75
2022/08/20 00:54:54;;;;;;;30.73;27.77;;;17.40;99.90;;;18.08;100.00;97835.78;5182800;28;20242;-75
2022/08/20 00:57:33;;;;;;;31.73;28.52;;;17.40;99.90;;;18.05;100.00;97847.78;5187326;28;20295;-75
2022/08/20 01:00:31;;;;;;;28.60;25.88;;;17.40;99.90;;;18.05;100.00;97855.53;5184007;28;20670;-76
2022/08/20 01:03:08;;;;;;;29.50;26.73;;;17.40;99.90;;;18.08;100.00;97850.44;5183521;28;20253;-75
2022/08/20 01:05:45;;;;;;;33.45;28.50;;;17.40;99.90;;;18.06;100.00;97858.19;5178879;28;20226;-76
2022/08/20 01:08:25;;;;;;;29.55;26.65;;;17.30;99.90;;;18.02;100.00;97854.59;5182474;28;20230;-75
2022/08/20 01:11:09;;;;;;;29.08;26.35;;;17.30;99.90;;;17.97;100.00;97853.63;5184483;28;20213;-75
2022/08/20 01:13:45;;;;;;;28.80;26.08;;;17.20;99.90;;;17.95;100.00;97857.88;5189043;28;20250;-75
2022/08/20 01:16:25;;;;;;;27.75;25.10;;;17.20;99.90;;;17.92;100.00;97855.19;5187218;28;20292;-76
2022/08/20 01:19:01;;;;;;;29.15;26.38;;;17.20;99.90;;;17.90;100.00;97859.44;5184513;28;20211;-75
2022/08/20 01:21:55;;;;;;;26.95;24.27;;;17.20;99.90;;;17.90;100.00;97862.03;5182472;28;20211;-76
2022/08/20 01:24:35;;;;;;;25.00;22.73;;;17.20;99.90;;;17.88;100.00;97853.34;5185501;28;20347;-75
2022/08/20 01:27:10;;;;;;;26.20;23.75;;;17.10;99.90;;;17.85;100.00;97858.44;5190110;28;20202;-75
2022/08/20 01:29:44;;;;;;;24.85;22.60;;;17.10;99.90;;;17.77;100.00;97859.91;5184032;28;20237;-75
2022/08/20 01:32:17;;;;;;;24.42;22.13;;;17.10;99.90;;;17.74;100.00;97867.56;5187802;28;20198;-75
2022/08/20 01:34:50;;;;;;;27.80;25.27;;;17.00;99.90;;;17.73;100.00;97886.50;5187926;28;20266;-76
2022/08/20 01:37:23;;;;;;;25.80;23.40;;;17.00;99.90;;;17.67;100.00;97886.31;5183114;28;20240;-76
2022/08/20 01:40:08;;;;;;;27.70;24.83;;;16.90;99.90;;;17.64;100.00;97889.69;5184764;28;20293;-75
2022/08/20 01:42:48;;;;;;;32.38;25.60;;;16.90;99.90;;;17.59;100.00;97885.22;5182711;28;20219;-75
2022/08/20 01:45:31;;;;;;;26.00;23.42;;;16.80;99.90;;;17.58;100.00;97886.06;5178530;28;20620;-75
2022/08/20 01:48:05;;;;;;;26.77;24.20;;;16.80;99.90;;;17.55;100.00;97879.94;5186095;28;20202;-75
2022/08/20 01:50:42;;;;;;;27.65;24.95;;;16.90;99.90;;;17.56;100.00;97886.88;5182347;28;20345;-76
2022/08/20 01:53:21;;;;;;;28.38;25.58;;;16.90;99.90;;;17.56;100.00;97886.88;5184717;28;20253;-75
2022/08/20 01:55:54;;;;;;;27.90;25.30;;;16.90;99.90;;;17.59;100.00;97891.25;5182735;28;20311;-75
2022/08/20 01:58:29;;;;;;;28.42;25.55;;;16.90;99.90;;;17.59;100.00;97887.78;5188086;28;20233;-76
2022/08/20 02:01:02;;;;;;;27.55;24.75;;;16.80;99.90;;;17.55;100.00;97884.25;5185231;28;20194;-75
2022/08/20 02:03:35;;;;;;;28.67;25.88;;;16.90;99.90;;;17.54;100.00;97883.38;5184206;28;20699;-75
2022/08/20 02:06:17;;;;;;;29.08;26.30;;;16.90;99.90;;;17.58;100.00;97886.94;5177940;28;20244;-76
2022/08/20 02:08:50;;;;;;;29.45;26.70;;;16.90;99.90;;;17.56;100.00;97886.88;5188201;28;20719;-75
2022/08/20 02:11:24;;;;;;;27.77;25.13;;;16.90;99.90;;;17.59;100.00;97880.03;5183213;28;20222;-74
2022/08/20 02:13:59;;;;;;;29.40;26.40;;;16.90;99.90;;;17.62;100.00;97890.47;5186234;28;20223;-75
2022/08/20 02:16:36;;;;;;;31.05;27.73;;;16.90;99.90;;;17.64;100.00;97888.81;5187879;28;20261;-76
2022/08/20 02:19:14;;;;;;;30.90;27.60;;;16.90;99.90;;;17.62;100.00;97882.72;5181195;28;20226;-75
2022/08/20 02:21:54;;;;;;;28.70;25.80;;;16.90;99.90;;;17.65;100.00;97891.44;5185053;28;20252;-76
2022/08/20 02:24:28;;;;;;;27.13;24.42;;;16.90;99.90;;;17.62;100.00;97887.88;5184054;28;20257;-75
2022/08/20 02:27:01;;;;;;;26.52;23.92;;;16.90;99.90;;;17.60;100.00;97890.44;5189219;28;20313;-75
2022/08/20 02:29:36;;;;;;;25.98;23.58;;;16.90;99.90;;;17.61;100.00;97875.81;5190683;28;20246;-75
2022/08/20 02:32:09;;;;;;;25.20;22.75;;;16.90;99.90;;;17.58;100.00;97881.75;5180819;28;20669;-75
2022/08/20 02:35:06;;;;;;;24.77;22.50;;;16.90;99.90;;;17.55;100.00;97873.91;5183480;28;20230;-75
2022/08/20 02:37:40;;;;;;;25.55;23.15;;;16.80;99.90;;;17.53;100.00;97880.72;5187357;28;20627;-75
2022/08/20 02:40:18;;;;;;;23.67;21.55;;;16.80;99.90;;;17.52;100.00;97890.19;5182481;28;20285;-75
2022/08/20 02:43:05;;;;;;;22.20;20.10;;;16.80;99.90;;;17.50;100.00;97880.66;5182702;28;20218;-75
2022/08/20 02:45:42;;;;;;;22.02;20.17;;;16.70;99.90;;;17.43;100.00;97879.59;5181025;28;20314;-76
2022/08/20 02:48:20;;;;;;;22.15;19.95;;;16.60;99.90;;;17.44;100.00;97883.03;5184653;28;20199;-76
2022/08/20 02:50:57;;;;;;;21.30;19.17;;;16.60;99.90;;;17.34;100.00;97884.50;5182203;28;20298;-76
2022/08/20 02:53:34;;;;;;;21.42;19.58;;;16.60;99.90;;;17.36;100.00;97882.81;5191132;28;20729;-76
2022/08/20 02:56:09;;;;;;;21.25;19.15;;;16.60;99.90;;;17.35;100.00;97881.06;5184685;28;20250;-76
2022/08/20 02:58:43;;;;;;;19.08;17.27;;;16.60;99.90;;;17.33;100.00;97877.53;5187143;28;20690;-76
2022/08/20 03:01:18;;;;;;;20.98;19.02;;;16.60;99.90;;;17.29;100.00;97878.28;5182045;28;20218;-75
2022/08/20 03:03:51;;;;;;;23.70;20.70;;;16.60;99.90;;;17.32;100.00;97886.13;5183103;28;20218;-75
2022/08/20 03:06:24;;;;;;;28.98;22.25;;;16.60;99.90;;;17.32;100.00;97886.13;5185407;28;20639;-75
2022/08/20 03:08:58;;;;;;;22.40;20.13;;;16.70;99.90;;;17.33;100.00;97877.53;5183885;28;20241;-76
2022/08/20 03:11:32;;;;;;;35.15;20.45;;;16.70;99.90;;;17.33;100.00;97882.72;5188712;28;20202;-76
2022/08/20 03:14:06;;;;;;;22.30;19.95;;;16.60;99.90;;;17.31;100.00;97879.19;5180597;28;20232;-76
2022/08/20 03:16:40;;;;;;;42.35;22.50;;;16.60;99.90;;;17.34;100.00;97879.31;5183420;28;20265;-75
2022/08/20 03:19:13;;;;;;;31.15;22.80;;;16.70;99.90;;;17.43;100.00;97874.44;5183106;28;20237;-76
2022/08/20 03:21:46;;;;;;;38.65;21.15;;;16.70;99.90;;;17.43;100.00;97882.19;5178943;28;20280;-77
2022/08/20 03:24:20;;;;;;;60.92;22.65;;;16.70;99.90;;;17.42;100.00;97871.78;5183647;28;20233;-76
2022/08/20 03:26:53;;;;;;;96.43;23.05;;;16.70;99.90;;;17.39;100.00;97876.84;5182123;28;20246;-75
2022/08/20 03:29:26;;;;;;;37.08;19.05;;;16.70;99.90;;;17.37;100.00;97878.50;5189088;28;20622;-76
2022/08/20 03:32:00;;;;;;;112.28;22.08;;;16.70;99.90;;;17.25;100.00;97879.00;5181624;28;20632;-76
2022/08/20 03:34:39;;;;;;;26.35;20.00;;;16.60;99.90;;;17.25;100.00;97884.19;5189209;28;20333;-76
2022/08/20 03:37:12;;;;;;;39.30;18.83;;;16.60;99.90;;;17.29;100.00;97891.22;5182399;28;20329;-76
2022/08/20 03:39:46;;;;;;;55.70;19.50;;;16.60;99.90;;;17.19;100.00;97890.03;5181095;28;20315;-76
2022/08/20 03:42:19;;;;;;;32.08;18.15;;;16.50;99.90;;;17.11;100.00;97887.22;5181936;28;20268;-76
2022/08/20 03:44:53;;;;;;;18.80;16.98;;;16.50;99.90;;;17.09;100.00;97883.72;5181323;28;20269;-76
2022/08/20 03:47:32;;;;;;;24.02;18.20;;;16.40;99.90;;;17.10;100.00;97892.31;5181724;28;20231;-76
2022/08/20 03:50:10;;;;;;;25.63;19.08;;;16.50;99.90;;;17.15;100.00;97898.53;5180916;28;20308;-76
2022/08/20 03:52:56;;;;;;;82.55;20.85;;;16.50;99.90;;;17.15;100.00;97889.91;5180680;28;20234;-76
2022/08/20 03:55:31;;;;;;;28.75;18.45;;;16.40;99.90;;;17.15;100.00;97895.06;5179682;28;20705;-76
2022/08/20 03:58:08;;;;;;;32.13;19.35;;;16.40;99.90;;;17.18;100.00;97892.59;5181809;28;20277;-76
2022/08/20 04:00:46;;;;;;;22.23;18.88;;;16.50;99.90;;;17.15;100.00;97898.53;5176675;28;20195;-76
2022/08/20 04:03:22;;;;;;;18.27;16.33;;;16.50;99.90;;;17.17;100.00;97898.56;5192669;28;20202;-75
2022/08/20 04:05:55;;;;;;;51.88;18.75;;;16.50;99.90;;;17.16;100.00;97889.94;5176937;28;20230;-75
2022/08/20 04:08:30;;;;;;;54.80;16.60;;;16.50;99.90;;;17.10;100.00;97894.91;5182273;28;20202;-75
2022/08/20 04:11:03;;;;;;;62.70;16.85;;;16.40;99.90;;;16.97;100.00;97896.22;5179992;28;20769;-75
2022/08/20 04:13:36;;;;;;;19.55;14.07;;;16.20;99.90;;;16.86;100.00;97890.72;5182570;28;20731;-75
2022/08/20 04:16:15;;;;;;;93.45;16.13;;;16.10;99.90;;;16.72;100.00;97893.63;5180442;28;20208;-75
2022/08/20 04:18:50;;;;;;;17.13;13.27;;;16.00;99.90;;;16.64;100.00;97894.25;5179404;28;20218;-75
2022/08/20 04:21:36;;;;;;;20.90;14.48;;;15.90;99.90;;;16.63;100.00;97895.06;5180816;28;20205;-76
2022/08/20 04:24:09;;;;;;;13.75;12.52;;;16.00;99.90;;;16.69;100.00;97903.84;5189598;28;20717;-75
2022/08/20 04:27:04;;;;;;;32.22;14.38;;;16.10;99.90;;;16.73;100.00;97903.13;5182384;28;20203;-76
2022/08/20 04:29:37;;;;;;;16.38;13.95;;;16.10;99.90;;;16.73;100.00;97909.16;5180751;28;20206;-75
2022/08/20 04:32:11;;;;;;;23.95;13.00;;;16.10;99.90;;;16.79;100.00;97921.44;5187669;28;20235;-75
2022/08/20 04:34:45;;;;;;;13.38;12.27;;;16.10;99.90;;;16.77;100.00;97920.50;5186867;28;20257;-74
2022/08/20 04:37:21;;;;;;;14.05;12.68;;;16.10;99.90;;;16.77;100.00;97930.81;5181774;28;20226;-76
2022/08/20 04:43:00;;;;;;;17.70;13.60;;;16.10;99.90;;;16.79;100.00;97939.50;5140305;28;20341;-77
2022/08/20 04:45:33;;;;;;;21.55;12.82;;;16.10;99.90;;;16.80;100.00;97931.81;5140573;28;20223;-76
2022/08/20 04:48:07;;;;;;;13.73;12.40;;;16.10;99.90;;;16.83;100.00;97937.09;5166184;28;20198;-76
2022/08/20 04:50:48;;;;;;;14.75;12.80;;;16.10;99.90;;;16.83;100.00;97938.78;5191294;28;20208;-76
2022/08/20 04:53:24;;;;;;;15.27;12.90;;;16.10;99.90;;;16.85;100.00;97940.59;5182743;28;20309;-76
2022/08/20 04:56:01;;;;;;;14.88;13.38;;;16.10;99.90;;;16.78;100.00;97938.63;5182482;28;20206;-76
2022/08/20 04:58:37;;;;;;;15.50;14.10;;;16.10;99.90;;;16.81;100.00;97943.03;5186491;28;20284;-75
2022/08/20 05:01:11;;;;;;;15.85;14.38;;;16.10;99.90;;;16.83;100.00;97950.00;5183817;28;20198;-75
2022/08/20 05:03:46;;;;;;;14.70;13.40;;;16.10;99.90;;;16.87;100.00;97948.38;5185616;28;20228;-75
2022/08/20 05:06:24;;;;;;;14.07;12.88;;;16.20;99.90;;;16.90;100.00;97951.06;5185567;28;20256;-76
2022/08/20 05:08:59;;;;;;;13.23;12.02;;;16.20;99.90;;;16.93;100.00;97953.75;5184990;28;20194;-75
2022/08/20 05:11:32;;;;;;;13.25;12.23;;;16.20;99.90;;;16.93;100.00;97961.50;5183734;28;20198;-75
2022/08/20 05:14:10;;;;;;;12.18;11.27;;;16.20;99.90;;;16.93;100.00;97953.75;5188646;28;20254;-75
2022/08/20 05:16:43;;;;;;;12.27;11.27;;;16.20;99.90;;;17.00;100.00;97954.84;5191046;28;20279;-75
2022/08/20 05:19:16;;;;;;;12.77;11.77;;;16.30;99.90;;;17.05;100.00;97959.34;5187137;28;20202;-75
2022/08/20 05:21:52;;;;;;;14.13;13.02;;;16.40;99.90;;;17.15;100.00;97959.63;5189629;28;20237;-76
2022/08/20 05:24:25;;;;;;;15.23;14.02;;;16.40;99.90;;;17.16;100.00;97951.94;5184636;28;20382;-76
2022/08/20 05:27:00;;;;;;;13.25;12.25;;;16.40;99.90;;;17.24;100.00;97955.63;5186939;28;20252;-76
2022/08/20 05:29:33;;;;;;;13.60;12.55;;;16.50;99.90;;;17.38;100.00;97957.81;5184899;28;20221;-75
2022/08/20 05:32:07;;;;;;;13.38;12.43;;;16.50;99.90;;;17.39;100.00;97964.72;5184961;28;20257;-75
2022/08/20 05:34:40;;;;;;;13.23;12.20;;;16.60;99.90;;;17.48;100.00;97960.72;5183733;28;20254;-76
2022/08/20 05:37:16;;;;;;;12.90;11.90;;;16.60;99.90;;;17.55;100.00;97954.91;5178238;28;20233;-75
2022/08/20 05:39:50;;;;;;;11.30;10.50;;;16.70;99.90;;;17.67;100.00;97957.00;5187291;28;20284;-75
2022/08/20 05:42:24;;;;;;;10.25;9.45;;;16.80;99.90;;;17.79;100.00;97966.84;5183735;28;20205;-75
2022/08/20 05:44:57;;;;;;;10.07;9.38;;;16.80;99.90;;;17.89;100.00;97955.97;5192201;28;20249;-75
2022/08/20 05:47:30;;;;;;;10.13;9.32;;;16.90;99.90;;;17.91;100.00;97958.59;5190989;28;20222;-76
2022/08/20 05:50:11;;;;;;;9.85;9.15;;;16.90;99.90;;;17.85;100.00;97959.28;5183999;28;20213;-76
2022/08/20 05:52:56;;;;;;;8.60;8.00;;;16.90;99.90;;;17.85;100.00;97955.81;5186544;28;20201;-76
2022/08/20 05:55:30;;;;;;;8.10;7.60;;;16.90;99.90;;;17.85;100.00;97955.81;5186208;28;20750;-76
2022/08/20 05:58:07;;;;;;;8.77;8.18;;;16.90;99.90;;;17.79;100.00;97961.69;5184486;28;20261;-76
2022/08/20 06:00:40;;;;;;;8.80;8.20;;;17.00;99.90;;;17.89;100.00;97955.97;5179170;28;20206;-76
2022/08/20 06:06:07;;;;;;;8.30;7.70;;;17.20;99.90;;;17.99;100.00;97965.75;5173724;28;20210;-76
2022/08/20 06:09:01;;;;;;;8.40;7.80;;;17.20;99.90;;;18.06;100.00;97971.13;5176895;28;20206;-76
2022/08/20 06:11:35;;;;;;;7.78;7.18;;;17.30;99.90;;;18.04;100.00;97960.72;5177727;28;20756;-77
2022/08/20 06:14:09;;;;;;;7.75;7.25;;;17.30;99.90;;;18.01;100.00;97966.66;5173369;28;20245;-76
2022/08/20 06:16:43;;;;;;;8.18;7.57;;;17.20;99.90;;;18.08;100.00;97961.69;5174292;28;20278;-76
2022/08/20 06:19:30;;;;;;;7.47;6.97;;;17.20;99.90;;;17.96;100.00;97973.41;5179174;28;20236;-76
2022/08/20 06:22:06;;;;;;;8.23;7.63;;;17.20;99.90;;;18.07;100.00;97972.88;5174188;28;20630;-77
2022/08/20 06:24:55;;;;;;;8.52;7.90;;;17.30;99.90;;;18.09;100.00;97968.63;5174940;28;20250;-76
2022/08/20 06:27:29;;;;;;;7.88;7.28;;;17.40;99.90;;;18.12;100.00;97960.94;5179052;28;20297;-75
2022/08/20 06:30:02;;;;;;;8.32;7.60;;;17.40;99.90;;;18.22;100.00;97960.34;5179614;28;20203;-77
2022/08/20 06:32:36;;;;;;;7.75;7.15;;;17.40;99.90;;;18.29;100.00;97964.88;5174409;28;20710;-77
2022/08/20 06:35:11;;;;;;;8.45;7.85;;;17.50;99.90;;;18.38;100.00;97959.97;5174548;28;20796;-76
2022/08/20 06:37:47;;;;;;;7.78;7.18;;;17.60;99.90;;;18.46;100.00;97958.47;5173120;28;20253;-76
2022/08/20 06:40:25;;;;;;;7.47;6.97;;;17.70;99.90;;;18.58;100.00;97963.09;5172592;28;20337;-76
2022/08/20 06:42:58;;;;;;;7.30;6.80;;;17.80;99.90;;;18.61;100.00;97958.00;5180774;28;20249;-76
2022/08/20 06:45:32;;;;;;;8.20;7.50;;;17.80;99.90;;;18.71;100.00;97966.00;5174953;28;20281;-76
2022/08/20 06:48:08;;;;;;;8.02;7.43;;;17.90;99.90;;;18.75;100.00;97965.31;5174247;28;20287;-76
2022/08/20 06:50:47;;;;;;;7.80;7.20;;;17.90;99.90;;;18.85;100.00;97968.16;5178362;28;20741;-75
2022/08/20 06:53:21;;;;;;;7.22;6.65;;;18.10;99.90;;;18.88;100.00;97973.41;5170270;28;20293;-75
2022/08/20 06:55:58;;;;;;;6.07;5.68;;;18.10;99.90;;;19.03;100.00;97972.06;5177292;28;20835;-75
2022/08/20 06:58:31;;;;;;;6.82;6.32;;;18.20;99.90;;;19.11;100.00;97971.44;5180333;28;20218;-75
2022/08/20 07:01:12;;;;;;;7.97;7.38;;;18.30;99.90;;;19.23;100.00;97973.47;5173191;28;20673;-75
2022/08/20 07:03:45;;;;;;;7.55;7.05;;;18.40;99.90;;;19.34;100.00;97972.00;5173775;28;20253;-75
2022/08/20 07:06:28;;;;;;;8.00;7.30;;;18.40;99.90;;;19.44;100.00;97973.09;5173370;28;20771;-74
2022/08/20 07:09:01;;;;;;;8.15;7.55;;;18.50;99.90;;;19.53;100.00;97972.44;5176635;28;20230;-75
2022/08/20 07:11:35;;;;;;;7.78;7.20;;;18.60;99.90;;;19.69;100.00;97976.31;5171452;28;20276;-75
2022/08/20 07:14:08;;;;;;;8.13;7.50;;;18.70;99.90;;;19.66;100.00;97974.53;5179607;28;20225;-76
2022/08/20 07:16:42;;;;;;;8.63;8.02;;;18.80;99.90;;;19.74;100.00;97983.34;5181422;28;20341;-75
2022/08/20 07:19:15;;;;;;;7.95;7.45;;;18.90;99.90;;;19.80;100.00;97975.72;5188058;28;20630;-76
2022/08/20 07:21:49;;;;;;;8.77;8.07;;;18.90;99.90;;;19.80;100.00;97978.31;5184560;28;20682;-75
2022/08/20 07:24:22;;;;;;;8.18;7.57;;;18.90;99.90;;;19.84;100.00;97975.78;5184770;28;20741;-75
2022/08/20 07:27:05;;;;;;;8.77;8.18;;;19.00;99.90;;;19.90;100.00;97986.28;5184553;28;20201;-76
2022/08/20 07:32:35;;;;;;;9.07;8.35;;;19.00;99.90;;;19.80;100.00;97985.19;5184442;28;20393;-75
2022/08/20 07:35:19;;;;;;;10.05;9.15;;;19.00;99.90;;;19.80;100.00;97990.38;5181561;28;20230;-75
2022/08/20 07:37:53;;;;;;;9.23;8.45;;;19.00;99.90;;;19.83;100.00;97992.16;5179677;28;20202;-76
2022/08/20 07:40:31;;;;;;;8.20;7.60;;;19.00;99.90;;;19.88;100.00;97995.75;5187673;28;20260;-74
2022/08/20 07:43:06;;;;;;;9.32;8.63;;;19.00;99.90;;;19.77;100.00;97999.00;5179722;28;20209;-75
2022/08/20 07:45:41;;;;;;;8.95;8.13;;;19.00;99.90;;;19.74;100.00;98006.69;5182611;28;20561;-75
2022/08/20 07:48:20;;;;;;;9.48;8.70;;;19.00;99.90;;;19.64;100.00;98002.09;5185269;28;20195;-75
2022/08/20 07:51:06;;;;;;;8.77;8.13;;;19.00;99.90;;;19.63;100.00;98009.81;5183923;28;20206;-74
2022/08/20 07:53:41;;;;;;;9.07;8.23;;;19.10;99.90;;;19.61;100.00;98015.00;5186176;28;20728;-74
2022/08/20 07:56:18;;;;;;;8.15;7.55;;;19.10;99.90;;;19.50;100.00;98014.72;5171072;28;20271;-75
2022/08/20 07:58:55;;;;;;;8.23;7.55;;;19.00;99.90;;;19.35;100.00;98012.63;5179367;28;20218;-75
2022/08/20 08:01:31;;;;;;;8.68;7.97;;;18.90;99.90;;;19.28;100.00;98010.72;5178118;28;21293;-75
2022/08/20 08:04:04;;;;;;;8.85;7.95;;;18.90;99.90;;;19.24;100.00;98008.03;5180056;28;20299;-74
2022/08/20 08:06:38;;;;;;;8.82;8.13;;;18.80;99.90;;;19.27;100.00;98008.97;5180673;28;20292;-74
2022/08/20 08:09:14;;;;;;;10.50;9.70;;;18.80;99.90;;;19.22;100.00;98005.38;5180514;28;20198;-73
2022/08/20 08:11:50;;;;;;;11.30;10.43;;;18.80;99.90;;;19.24;100.00;98002.84;5182688;28;20256;-74
2022/08/20 08:14:28;;;;;;;10.50;9.63;;;18.90;99.90;;;19.37;100.00;98002.28;5180827;28;20788;-74
2022/08/20 08:17:04;;;;;;;9.98;9.18;;;19.00;99.90;;;19.51;100.00;98002.63;5190207;28;20195;-74
2022/08/20 08:19:43;;;;;;;9.13;8.40;;;19.10;99.90;;;19.60;100.00;98005.44;5185858;28;20747;-75
2022/08/20 08:22:18;;;;;;;9.35;8.45;;;19.10;99.90;;;19.61;100.00;97996.84;5184045;28;20774;-74
2022/08/20 08:24:52;;;;;;;8.95;8.15;;;19.20;99.90;;;19.68;100.00;98001.34;5184769;28;20268;-74
2022/08/20 08:27:31;;;;;;;9.60;8.82;;;19.20;99.90;;;19.74;100.00;98005.78;5188468;28;20248;-74
2022/08/20 08:30:08;;;;;;;10.35;9.45;;;19.40;99.90;;;19.89;100.00;98007.91;5183041;28;20557;-75
2022/08/20 08:33:26;;;;;;;10.32;9.18;;;19.50;99.90;;;19.94;100.00;98008.84;5184541;28;20195;-73
2022/08/20 08:35:37;;;;;;;10.05;9.02;;;19.50;99.90;;;20.01;100.00;98006.44;5180628;28;20258;-75
2022/08/20 09:01:45;;;;;;;11.68;10.65;;;20.20;99.90;;;19.95;100.00;98005.44;5300503;27;20663;-65
2022/08/20 09:04:33;;;;;;;11.32;10.40;;;20.20;99.90;;;20.28;100.00;98005.28;5269979;28;20219;-66
2022/08/20 09:07:12;;;;;;;10.52;9.73;;;20.30;99.90;;;20.55;100.00;98001.53;5266291;28;20212;-66
2022/08/20 09:09:47;;;;;;;11.68;10.68;;;20.40;99.90;;;20.83;100.00;98000.31;5272856;28;20231;-66
2022/08/20 09:12:26;;;;;;;11.18;10.27;;;20.60;99.90;;;21.13;100.00;98002.63;5274144;28;20292;-67
2022/08/20 09:15:00;;;;;;;10.15;9.35;;;20.80;99.90;;;21.33;100.00;98002.97;5276214;28;20202;-66
2022/08/20 09:17:34;;;;;;;9.98;9.25;;;21.00;99.90;;;21.48;100.00;98011.03;5269529;28;20299;-67
2022/08/20 09:20:09;;;;;;;8.70;8.10;;;21.10;99.90;;;21.61;100.00;98009.53;5265887;28;20255;-67
2022/08/20 09:22:42;;;;;;;9.68;8.85;;;21.10;99.90;;;21.79;100.00;98019.34;5273163;28;20225;-67
2022/08/20 09:25:15;;;;;;;9.70;8.95;;;21.20;99.90;;;21.89;100.00;98010.81;5273837;28;20219;-67
2022/08/20 09:27:49;;;;;;;9.77;8.98;;;21.30;99.90;;;21.89;97.73;98004.72;5272324;28;20239;-66
2022/08/20 09:30:22;;;;;;;9.15;8.35;;;21.30;99.90;;;21.95;100.00;98005.72;5269336;28;20718;-65
2022/08/20 09:32:59;;;;;;;9.38;8.60;;;21.30;99.90;;;21.88;94.61;98003.84;5268409;28;20246;-67
2022/08/20 09:35:33;;;;;;;8.70;8.00;;;21.20;99.90;;;21.91;97.81;98005.63;5269699;28;20234;-66
2022/08/20 09:38:06;;;;;;;9.07;8.32;;;21.30;99.90;;;21.94;96.00;98006.53;5269372;28;20651;-67
2022/08/20 09:40:39;;;;;;;9.65;8.80;;;21.30;99.90;;;21.93;92.12;98004.81;5272875;28;20251;-66
2022/08/20 09:43:13;;;;;;;8.65;7.97;;;21.30;99.90;;;22.03;95.86;98003.19;5274450;28;20318;-67
2022/08/20 09:45:46;;;;;;;8.90;8.20;;;21.40;99.90;;;22.11;95.12;98003.31;5271574;28;20636;-66
2022/08/20 09:48:21;;;;;;;9.43;8.73;;;21.40;99.90;;;22.11;91.85;97995.50;5269162;28;20262;-66
2022/08/20 09:51:04;;;;;;;8.27;7.57;;;21.40;99.90;;;22.13;93.23;97993.78;5275836;28;20188;-65
2022/08/20 09:53:37;;;;;;;8.95;8.20;;;21.40;99.90;;;22.21;94.08;97987.88;5266431;28;20306;-66
2022/08/20 09:56:10;;;;;;;9.10;8.30;;;21.50;99.90;;;22.31;92.14;97982.78;5269416;28;20303;-66
2022/08/20 09:58:49;;;;;;;8.40;7.65;;;21.60;99.90;;;22.38;92.86;97988.09;5267251;28;20227;-67
2022/08/20 10:01:22;;;;;;;9.15;8.45;;;21.70;99.90;;;22.38;94.47;97975.06;5274948;28;20223;-66
2022/08/20 10:03:57;;;;;;;9.52;8.73;;;21.70;99.90;;;22.34;93.91;97986.28;5273778;28;20284;-67
2022/08/20 10:06:30;;;;;;;8.65;7.95;;;21.50;99.90;;;22.22;91.79;97983.53;5274444;28;20249;-67
2022/08/20 10:09:09;;;;;;;10.05;9.18;;;21.50;99.90;;;22.35;97.71;97982.84;5261233;28;20200;-66
2022/08/20 10:11:42;;;;;;;9.10;8.40;;;21.60;99.90;;;22.39;98.80;97979.41;5260028;28;20201;-66
2022/08/20 10:14:15;;;;;;;9.18;8.38;;;21.70;99.90;;;22.58;96.58;97982.25;5253871;28;20740;-66
2022/08/20 10:16:56;;;;;;;9.57;8.77;;;21.90;99.90;;;22.74;98.57;97967.63;5256536;28;20227;-67
2022/08/20 10:19:33;;;;;;;9.27;8.60;;;22.10;99.90;;;22.66;89.91;97967.53;5253593;28;20550;-66
2022/08/20 10:22:07;;;;;;;7.70;7.20;;;22.10;99.90;;;22.77;92.21;97973.75;5254002;28;20254;-66
2022/08/20 10:24:40;;;;;;;8.60;7.90;;;22.10;99.90;;;22.94;96.31;97972.19;5255467;28;20791;-65
2022/08/20 10:27:13;;;;;;;8.60;7.90;;;22.30;99.90;;;22.91;88.97;97966.94;5253500;28;20676;-67
2022/08/20 10:29:48;;;;;;;8.13;7.40;;;22.30;99.90;;;23.21;93.65;97978.56;5260355;28;20249;-69
2022/08/20 10:32:22;;;;;;;8.48;7.88;;;22.60;99.90;;;23.50;89.57;97970.09;5233979;28;20231;-67
2022/08/20 10:34:57;;;;;;;8.48;7.68;;;22.90;99.90;;;23.78;88.76;97964.25;5239910;28;20209;-67
2022/08/20 10:37:30;;;;;;;8.52;7.75;;;23.40;99.90;;;23.92;82.34;97963.44;5243951;28;20223;-64
2022/08/20 10:40:05;;;;;;;8.60;7.90;;;23.40;99.90;;;23.93;86.08;97970.41;5243210;28;20325;-68
2022/08/20 10:42:38;;;;;;;11.63;10.45;;;23.40;99.90;;;23.55;88.80;97968.38;5240016;28;20227;-68
2022/08/20 10:45:16;;;;;;;10.30;9.45;;;23.10;99.90;;;23.07;91.93;97975.81;5236685;28;20249;-66
2022/08/20 10:47:49;;;;;;;10.90;9.93;;;22.60;99.90;;;22.72;92.91;97988.47;5242522;28;20273;-67
2022/08/20 10:50:24;;;;;;;9.82;9.00;;;22.20;99.90;;;22.38;96.46;97984.59;5238168;28;20228;-67
2022/08/20 10:53:02;;;;;;;9.30;8.43;;;21.90;99.90;;;22.06;97.86;97982.41;5235007;28;20220;-66
2022/08/20 10:55:35;;;;;;;9.10;8.20;;;21.70;99.90;;;21.91;99.85;97972.66;5233966;28;20232;-67
2022/08/20 10:58:09;;;;;;;8.60;7.28;;;21.50;99.90;;;21.80;100.00;97985.53;5233327;28;20200;-66
2022/08/20 11:01:27;;;;;;;8.63;7.68;;;21.30;99.90;;;21.72;100.00;97991.47;5230959;28;20204;-67
2022/08/20 11:04:34;;;;;;;8.20;7.50;;;21.30;99.90;;;21.66;100.00;97986.16;5237974;28;20221;-65
2022/08/20 11:07:29;;;;;;;8.57;7.88;;;21.20;99.90;;;21.62;100.00;97985.25;5228308;28;20213;-66
2022/08/20 11:10:24;;;;;;;8.90;8.20;;;21.10;99.90;;;21.59;100.00;97991.28;5231900;28;20211;-66
2022/08/20 11:13:12;;;;;;;8.88;8.07;;;21.00;99.90;;;21.59;100.00;97990.41;5240142;28;20224;-66
2022/08/20 11:15:45;;;;;;;9.13;8.23;;;21.00;99.90;;;21.59;100.00;97975.66;5235459;28;20193;-66